Baltimore — WD19338 — position and weather

sailwx.info

Track history (hours):
 
Tides and Currents Weather Stations Pressure Air Temp Water Temp Dewpoint Dewpoint Depression Visibility Wind Speed Wind Dir Waves Ship Positions

Baltimore

Last reported at 2018-Jan-20 18:00 UTC. Time now 2018-Jan-21 04:57 UTC.
Position N 40°53' W 073°43'.

Length 33 m.

Type: Tug. MMSI: 338602000.

Date/timePositionNaut miles runAvg speedWind from/ knotsBaromVisibWave heightAir tempDewpointWater temp
2018-Jan-20 18:00N 40°53' W 073°43'3 6.0
2018-Jan-20 17:29N 40°51' W 073°46'3 6.1
2018-Jan-20 16:59N 40°48' W 073°47'3 5.8
2018-Jan-20 16:29N 40°48' W 073°51'3 5.8
2018-Jan-20 16:00N 40°48' W 073°55'3 6.2
2018-Jan-20 15:30N 40°45' W 073°57'2 4.1
2018-Jan-20 15:01N 40°43' W 073°58'2 4.7
2018-Jan-20 14:30N 40°42' W 074°00'2 4.4
2018-Jan-20 14:00N 40°40' W 074°02'2 4.3
2018-Jan-20 13:30N 40°38' W 074°03'2 4.8
2018-Jan-20 13:00N 40°36' W 074°02'2 3.2
2018-Jan-20 12:30N 40°34' W 074°02'2 4.7
2018-Jan-20 12:00N 40°32' W 074°01'3 6.6
2018-Jan-20 11:30N 40°30' W 073°57'3 6.1
2018-Jan-20 11:00N 40°28' W 073°54'43 6.4
2018-Jan-20 04:21N 39°46' W 073°59'2 6.4
2018-Jan-20 03:59N 39°44' W 073°60'3 6.3
2018-Jan-20 03:30N 39°41' W 074°01'3 6.4
2018-Jan-20 03:00N 39°38' W 074°03'3 6.5
2018-Jan-20 02:30N 39°35' W 074°04'61 5.2
2018-Jan-19 14:40N 38°58' W 075°08'1 3.0
2018-Jan-19 14:30N 38°59' W 075°08'1 2.5
2018-Jan-19 14:00N 39°00' W 075°09'3 6.2
2018-Jan-19 13:30N 39°03' W 075°10'3 6.1
2018-Jan-19 13:00N 39°06' W 075°12'3 6.0
2018-Jan-19 12:30N 39°08' W 075°14'3 6.4
2018-Jan-19 11:59N 39°11' W 075°16'3 7.0
2018-Jan-19 11:30N 39°14' W 075°18'4 7.9
2018-Jan-19 11:00N 39°17' W 075°22'4 8.7
2018-Jan-19 10:30N 39°20' W 075°25'5 9.3
2018-Jan-19 10:00N 39°24' W 075°29'5 9.3
2018-Jan-19 09:30N 39°27' W 075°33'4 8.5
2018-Jan-19 09:00N 39°31' W 075°33'4 8.3
2018-Jan-19 08:30N 39°36' W 075°34'3 6.9
2018-Jan-19 08:00N 39°39' W 075°33'4 7.5
2018-Jan-19 07:30N 39°42' W 075°31'3 7.0
2018-Jan-19 07:00N 39°45' W 075°29'3 6.1
2018-Jan-19 06:30N 39°48' W 075°26'3 5.9
2018-Jan-19 06:00N 39°49' W 075°23'3 5.2
2018-Jan-19 05:30N 39°51' W 075°20'3 5.3
2018-Jan-19 05:00N 39°51' W 075°17'1 1.5
2018-Jan-19 04:30N 39°51' W 075°16'2 4.6
2018-Jan-19 04:01N 39°52' W 075°13'2 3.8
2018-Jan-19 03:30N 39°54' W 075°12'0 0.0
2018-Jan-19 03:00N 39°54' W 075°12'0 0.0
2018-Jan-19 02:31N 39°54' W 075°12'0 0.0
2018-Jan-19 02:00N 39°54' W 075°12'0 0.0
2018-Jan-19 01:30N 39°54' W 075°12'0 0.0
2018-Jan-19 01:00N 39°54' W 075°12'0 0.0
2018-Jan-19 00:31N 39°54' W 075°12'0 0.0
2018-Jan-19 00:01N 39°54' W 075°12'0 0.0
2018-Jan-18 23:31N 39°54' W 075°12'0 0.0
2018-Jan-18 23:00N 39°54' W 075°12'0 0.0
2018-Jan-18 22:30N 39°54' W 075°12'0 0.0
2018-Jan-18 22:00N 39°54' W 075°12'0 0.0
2018-Jan-18 21:31N 39°54' W 075°12'0 0.0
2018-Jan-18 21:01N 39°54' W 075°12'0 0.0
2018-Jan-18 20:07N 39°54' W 075°12'0 0.0
2018-Jan-18 20:01N 39°54' W 075°12'0 0.0
2018-Jan-18 19:30N 39°54' W 075°12'0 0.0
2018-Jan-18 19:00N 39°54' W 075°12'0 0.0
2018-Jan-18 18:31N 39°54' W 075°12'0 0.0
2018-Jan-18 18:00N 39°54' W 075°12'0 0.0
2018-Jan-18 17:30N 39°54' W 075°12'0 0.0
2018-Jan-18 17:00N 39°54' W 075°12'0 0.1
2018-Jan-18 16:30N 39°54' W 075°12'0 0.0
2018-Jan-18 16:00N 39°54' W 075°12'0 0.2
2018-Jan-18 15:30N 39°54' W 075°12'0 0.0
2018-Jan-18 15:00N 39°54' W 075°12'0 0.0
2018-Jan-18 14:30N 39°54' W 075°12'1 1.2
2018-Jan-18 14:01N 39°54' W 075°12'0 0.1
2018-Jan-18 13:31N 39°54' W 075°12'0 0.0
2018-Jan-18 13:00N 39°54' W 075°12'0 0.0
2018-Jan-18 12:30N 39°54' W 075°12'0 0.0
2018-Jan-18 12:01N 39°54' W 075°12'0 0.0
2018-Jan-18 11:30N 39°54' W 075°12'0 0.0
2018-Jan-18 11:00N 39°54' W 075°12'0 0.0
2018-Jan-18 10:31N 39°54' W 075°12'0 0.0
2018-Jan-18 10:00N 39°54' W 075°12'0 0.0
2018-Jan-18 09:30N 39°54' W 075°12'0 0.0
2018-Jan-18 09:00N 39°54' W 075°12'0 0.0
2018-Jan-18 08:31N 39°54' W 075°12'0 0.0
2018-Jan-18 08:00N 39°54' W 075°12'0 0.0
2018-Jan-18 07:30N 39°54' W 075°12'0 0.0
2018-Jan-18 07:00N 39°54' W 075°12'0 0.0
2018-Jan-18 06:31N 39°54' W 075°12'0 0.0
2018-Jan-18 06:00N 39°54' W 075°12'0 0.0
2018-Jan-18 05:30N 39°54' W 075°12'0 0.0
2018-Jan-18 05:00N 39°54' W 075°12'0 0.0
2018-Jan-18 04:30N 39°54' W 075°12'0 0.0
2018-Jan-18 04:00N 39°54' W 075°12'0 0.0
2018-Jan-18 03:30N 39°54' W 075°12'0 0.7
2018-Jan-18 03:01N 39°54' W 075°12'4 7.5
2018-Jan-18 02:31N 39°51' W 075°15'0 0.9
2018-Jan-18 02:00N 39°51' W 075°16'2 4.7
2018-Jan-18 01:30N 39°51' W 075°19'4 7.7
2018-Jan-18 01:00N 39°49' W 075°23'8 7.7
2018-Jan-18 00:00N 39°43' W 075°30'0 7.6
2018-Jan-17 23:57N 39°43' W 075°30'  
2018-Jan-12 15:00N 39°54' W 075°12'0 0.0
2018-Jan-12 14:30N 39°54' W 075°12'0 0.0
2018-Jan-12 14:01N 39°54' W 075°12'0 0.0
2018-Jan-12 13:30N 39°54' W 075°12'0 0.0
2018-Jan-12 13:00N 39°54' W 075°12'0 0.0
2018-Jan-12 12:30N 39°54' W 075°12'0 0.0
2018-Jan-12 12:00N 39°54' W 075°12'0 0.0
2018-Jan-12 11:30N 39°54' W 075°12'0 0.0
2018-Jan-12 11:00N 39°54' W 075°12'0 0.0
2018-Jan-12 10:30N 39°54' W 075°12'0 0.0
2018-Jan-12 10:00N 39°54' W 075°12'0 0.0
2018-Jan-12 09:31N 39°54' W 075°12'0 0.0
2018-Jan-12 09:00N 39°54' W 075°12'0 0.0
2018-Jan-12 08:30N 39°54' W 075°12'0 0.2
2018-Jan-12 08:01N 39°53' W 075°12'3 5.5
2018-Jan-12 07:31N 39°51' W 075°14'0 0.6
2018-Jan-12 07:00N 39°51' W 075°14'1 1.4
2018-Jan-12 06:30N 39°52' W 075°13'0 0.0
2018-Jan-12 06:00N 39°52' W 075°13'0 0.0
2018-Jan-12 05:30N 39°52' W 075°13'0 0.0
2018-Jan-12 05:00N 39°52' W 075°13'0 0.1
2018-Jan-12 04:31N 39°52' W 075°13'0 0.3
2018-Jan-12 04:00N 39°52' W 075°13'0 0.2
2018-Jan-12 03:31N 39°52' W 075°13'0 0.2
2018-Jan-12 03:01N 39°52' W 075°13'2 4.2
2018-Jan-12 02:31N 39°54' W 075°12'0 0.9
2018-Jan-12 02:00N 39°54' W 075°12'1 1.0
2018-Jan-12 01:31N 39°54' W 075°12'2 4.0
2018-Jan-12 01:00N 39°52' W 075°13'2 4.8
2018-Jan-12 00:30N 39°51' W 075°16'0 0.5
2018-Jan-12 00:00N 39°51' W 075°16'3 5.9
2018-Jan-11 23:30N 39°52' W 075°12'1 2.3
2018-Jan-11 23:00N 39°54' W 075°12'0 0.0
2018-Jan-11 22:31N 39°54' W 075°12'0 0.0
2018-Jan-11 22:00N 39°54' W 075°12'0 0.0
2018-Jan-11 21:31N 39°54' W 075°12'0 0.0
2018-Jan-11 21:00N 39°54' W 075°12'0 0.0
2018-Jan-11 20:31N 39°54' W 075°12'0 0.0
2018-Jan-11 20:00N 39°54' W 075°12'0 0.1
2018-Jan-11 19:30N 39°54' W 075°12'0 0.0
2018-Jan-11 19:00N 39°54' W 075°12'0 0.0
2018-Jan-11 18:30N 39°54' W 075°12'0 0.0
2018-Jan-11 18:00N 39°54' W 075°12'0 0.0
2018-Jan-11 17:31N 39°54' W 075°12'0 0.0
2018-Jan-11 17:01N 39°54' W 075°12'0 0.0
2018-Jan-11 16:30N 39°54' W 075°12'0 0.0
2018-Jan-11 16:00N 39°54' W 075°12'1 1.2
2018-Jan-11 15:31N 39°54' W 075°12'0 0.0
2018-Jan-11 15:00N 39°54' W 075°12'0 0.0
2018-Jan-11 14:30N 39°54' W 075°12'0 0.0
2018-Jan-11 14:01N 39°54' W 075°12'0 0.0
2018-Jan-11 13:31N 39°54' W 075°12'0 0.0
2018-Jan-11 13:01N 39°54' W 075°12'0 0.0
2018-Jan-11 12:30N 39°54' W 075°12'0 0.0
2018-Jan-11 12:01N 39°54' W 075°12'0 0.0
2018-Jan-11 11:31N 39°54' W 075°12'0 0.0
2018-Jan-11 11:01N 39°54' W 075°12'0 0.3
2018-Jan-11 10:31N 39°54' W 075°12'0 0.9
2018-Jan-11 10:00N 39°54' W 075°12'0 0.6
2018-Jan-11 09:31N 39°54' W 075°12'3 5.8
2018-Jan-11 09:00N 39°51' W 075°14'4 7.7
2018-Jan-11 08:30N 39°51' W 075°19'4 7.5
2018-Jan-11 08:00N 39°49' W 075°23'4 7.4
2018-Jan-11 07:30N 39°47' W 075°27'4 7.3
2018-Jan-11 07:00N 39°44' W 075°30'3 6.6
2018-Jan-11 06:30N 39°41' W 075°31'3 6.6
2018-Jan-11 06:01N 39°38' W 075°34'3 5.7
2018-Jan-11 05:30N 39°35' W 075°34'3 6.1
2018-Jan-11 05:01N 39°32' W 075°33'3 5.9
2018-Jan-11 04:30N 39°29' W 075°34'3 5.9
2018-Jan-11 04:00N 39°27' W 075°33'3 6.6
2018-Jan-11 03:30N 39°24' W 075°30'3 6.9
2018-Jan-11 03:00N 39°22' W 075°27'3 6.8
2018-Jan-11 02:30N 39°19' W 075°24'4 7.1
2018-Jan-11 02:00N 39°16' W 075°21'4 7.2
2018-Jan-11 01:30N 39°14' W 075°18'4 7.3
2018-Jan-11 01:00N 39°10' W 075°16'4 7.6
2018-Jan-11 00:28N 39°07' W 075°13'15 8.1
2018-Jan-10 22:40N 38°54' W 075°05'1 3.2
2018-Jan-10 22:23N 38°53' W 075°05'5 5.6
2018-Jan-10 21:26N 38°49' W 075°01'4 8.9
2018-Jan-10 21:00N 38°49' W 074°56'  
Track history (hours):
 
Tides and Currents Weather Stations Pressure Air Temp Water Temp Dewpoint Dewpoint Depression Visibility Wind Speed Wind Dir Waves Ship Positions

Baltimore

Last reported at 2018-Jan-20 18:00 UTC. Time now 2018-Jan-21 04:57 UTC.
Position N 40°53' W 073°43'.

Length 33 m.

Type: Tug. MMSI: 338602000.

Date/timePositionNaut miles runAvg speedWind from/ knotsBaromVisibWave heightAir tempDewpointWater temp
2018-Jan-20 18:00N 40°53' W 073°43'3 6.0
2018-Jan-20 17:29N 40°51' W 073°46'3 6.1
2018-Jan-20 16:59N 40°48' W 073°47'3 5.8
2018-Jan-20 16:29N 40°48' W 073°51'3 5.8
2018-Jan-20 16:00N 40°48' W 073°55'3 6.2
2018-Jan-20 15:30N 40°45' W 073°57'2 4.1
2018-Jan-20 15:01N 40°43' W 073°58'2 4.7
2018-Jan-20 14:30N 40°42' W 074°00'2 4.4
2018-Jan-20 14:00N 40°40' W 074°02'2 4.3
2018-Jan-20 13:30N 40°38' W 074°03'2 4.8
2018-Jan-20 13:00N 40°36' W 074°02'2 3.2
2018-Jan-20 12:30N 40°34' W 074°02'2 4.7
2018-Jan-20 12:00N 40°32' W 074°01'3 6.6
2018-Jan-20 11:30N 40°30' W 073°57'3 6.1
2018-Jan-20 11:00N 40°28' W 073°54'43 6.4
2018-Jan-20 04:21N 39°46' W 073°59'2 6.4
2018-Jan-20 03:59N 39°44' W 073°60'3 6.3
2018-Jan-20 03:30N 39°41' W 074°01'3 6.4
2018-Jan-20 03:00N 39°38' W 074°03'3 6.5
2018-Jan-20 02:30N 39°35' W 074°04'61 5.2
2018-Jan-19 14:40N 38°58' W 075°08'1 3.0
2018-Jan-19 14:30N 38°59' W 075°08'1 2.5
2018-Jan-19 14:00N 39°00' W 075°09'3 6.2
2018-Jan-19 13:30N 39°03' W 075°10'3 6.1
2018-Jan-19 13:00N 39°06' W 075°12'3 6.0
2018-Jan-19 12:30N 39°08' W 075°14'3 6.4
2018-Jan-19 11:59N 39°11' W 075°16'3 7.0
2018-Jan-19 11:30N 39°14' W 075°18'4 7.9
2018-Jan-19 11:00N 39°17' W 075°22'4 8.7
2018-Jan-19 10:30N 39°20' W 075°25'5 9.3
2018-Jan-19 10:00N 39°24' W 075°29'5 9.3
2018-Jan-19 09:30N 39°27' W 075°33'4 8.5
2018-Jan-19 09:00N 39°31' W 075°33'4 8.3
2018-Jan-19 08:30N 39°36' W 075°34'3 6.9
2018-Jan-19 08:00N 39°39' W 075°33'4 7.5
2018-Jan-19 07:30N 39°42' W 075°31'3 7.0
2018-Jan-19 07:00N 39°45' W 075°29'3 6.1
2018-Jan-19 06:30N 39°48' W 075°26'3 5.9
2018-Jan-19 06:00N 39°49' W 075°23'3 5.2
2018-Jan-19 05:30N 39°51' W 075°20'3 5.3
2018-Jan-19 05:00N 39°51' W 075°17'1 1.5
2018-Jan-19 04:30N 39°51' W 075°16'2 4.6
2018-Jan-19 04:01N 39°52' W 075°13'2 3.8
2018-Jan-19 03:30N 39°54' W 075°12'0 0.0
2018-Jan-19 03:00N 39°54' W 075°12'0 0.0
2018-Jan-19 02:31N 39°54' W 075°12'0 0.0
2018-Jan-19 02:00N 39°54' W 075°12'0 0.0
2018-Jan-19 01:30N 39°54' W 075°12'0 0.0
2018-Jan-19 01:00N 39°54' W 075°12'0 0.0
2018-Jan-19 00:31N 39°54' W 075°12'0 0.0
2018-Jan-19 00:01N 39°54' W 075°12'0 0.0
2018-Jan-18 23:31N 39°54' W 075°12'0 0.0
2018-Jan-18 23:00N 39°54' W 075°12'0 0.0
2018-Jan-18 22:30N 39°54' W 075°12'0 0.0
2018-Jan-18 22:00N 39°54' W 075°12'0 0.0
2018-Jan-18 21:31N 39°54' W 075°12'0 0.0
2018-Jan-18 21:01N 39°54' W 075°12'0 0.0
2018-Jan-18 20:07N 39°54' W 075°12'0 0.0
2018-Jan-18 20:01N 39°54' W 075°12'0 0.0
2018-Jan-18 19:30N 39°54' W 075°12'0 0.0
2018-Jan-18 19:00N 39°54' W 075°12'0 0.0
2018-Jan-18 18:31N 39°54' W 075°12'0 0.0
2018-Jan-18 18:00N 39°54' W 075°12'0 0.0
2018-Jan-18 17:30N 39°54' W 075°12'0 0.0
2018-Jan-18 17:00N 39°54' W 075°12'0 0.1
2018-Jan-18 16:30N 39°54' W 075°12'0 0.0
2018-Jan-18 16:00N 39°54' W 075°12'0 0.2
2018-Jan-18 15:30N 39°54' W 075°12'0 0.0
2018-Jan-18 15:00N 39°54' W 075°12'0 0.0
2018-Jan-18 14:30N 39°54' W 075°12'1 1.2
2018-Jan-18 14:01N 39°54' W 075°12'0 0.1
2018-Jan-18 13:31N 39°54' W 075°12'0 0.0
2018-Jan-18 13:00N 39°54' W 075°12'0 0.0
2018-Jan-18 12:30N 39°54' W 075°12'0 0.0
2018-Jan-18 12:01N 39°54' W 075°12'0 0.0
2018-Jan-18 11:30N 39°54' W 075°12'0 0.0
2018-Jan-18 11:00N 39°54' W 075°12'0 0.0
2018-Jan-18 10:31N 39°54' W 075°12'0 0.0
2018-Jan-18 10:00N 39°54' W 075°12'0 0.0
2018-Jan-18 09:30N 39°54' W 075°12'0 0.0
2018-Jan-18 09:00N 39°54' W 075°12'0 0.0
2018-Jan-18 08:31N 39°54' W 075°12'0 0.0
2018-Jan-18 08:00N 39°54' W 075°12'0 0.0
2018-Jan-18 07:30N 39°54' W 075°12'0 0.0
2018-Jan-18 07:00N 39°54' W 075°12'0 0.0
2018-Jan-18 06:31N 39°54' W 075°12'0 0.0
2018-Jan-18 06:00N 39°54' W 075°12'0 0.0
2018-Jan-18 05:30N 39°54' W 075°12'0 0.0
2018-Jan-18 05:00N 39°54' W 075°12'0 0.0
2018-Jan-18 04:30N 39°54' W 075°12'0 0.0
2018-Jan-18 04:00N 39°54' W 075°12'0 0.0
2018-Jan-18 03:30N 39°54' W 075°12'0 0.7
2018-Jan-18 03:01N 39°54' W 075°12'4 7.5
2018-Jan-18 02:31N 39°51' W 075°15'0 0.9
2018-Jan-18 02:00N 39°51' W 075°16'2 4.7
2018-Jan-18 01:30N 39°51' W 075°19'4 7.7
2018-Jan-18 01:00N 39°49' W 075°23'8 7.7
2018-Jan-18 00:00N 39°43' W 075°30'0 7.6
2018-Jan-17 23:57N 39°43' W 075°30'  
2018-Jan-12 15:00N 39°54' W 075°12'0 0.0
2018-Jan-12 14:30N 39°54' W 075°12'0 0.0
2018-Jan-12 14:01N 39°54' W 075°12'0 0.0
2018-Jan-12 13:30N 39°54' W 075°12'0 0.0
2018-Jan-12 13:00N 39°54' W 075°12'0 0.0
2018-Jan-12 12:30N 39°54' W 075°12'0 0.0
2018-Jan-12 12:00N 39°54' W 075°12'0 0.0
2018-Jan-12 11:30N 39°54' W 075°12'0 0.0
2018-Jan-12 11:00N 39°54' W 075°12'0 0.0
2018-Jan-12 10:30N 39°54' W 075°12'0 0.0
2018-Jan-12 10:00N 39°54' W 075°12'0 0.0
2018-Jan-12 09:31N 39°54' W 075°12'0 0.0
2018-Jan-12 09:00N 39°54' W 075°12'0 0.0
2018-Jan-12 08:30N 39°54' W 075°12'0 0.2
2018-Jan-12 08:01N 39°53' W 075°12'3 5.5
2018-Jan-12 07:31N 39°51' W 075°14'0 0.6
2018-Jan-12 07:00N 39°51' W 075°14'1 1.4
2018-Jan-12 06:30N 39°52' W 075°13'0 0.0
2018-Jan-12 06:00N 39°52' W 075°13'0 0.0
2018-Jan-12 05:30N 39°52' W 075°13'0 0.0
2018-Jan-12 05:00N 39°52' W 075°13'0 0.1
2018-Jan-12 04:31N 39°52' W 075°13'0 0.3
2018-Jan-12 04:00N 39°52' W 075°13'0 0.2
2018-Jan-12 03:31N 39°52' W 075°13'0 0.2
2018-Jan-12 03:01N 39°52' W 075°13'2 4.2
2018-Jan-12 02:31N 39°54' W 075°12'0 0.9
2018-Jan-12 02:00N 39°54' W 075°12'1 1.0
2018-Jan-12 01:31N 39°54' W 075°12'2 4.0
2018-Jan-12 01:00N 39°52' W 075°13'2 4.8
2018-Jan-12 00:30N 39°51' W 075°16'0 0.5
2018-Jan-12 00:00N 39°51' W 075°16'3 5.9
2018-Jan-11 23:30N 39°52' W 075°12'1 2.3
2018-Jan-11 23:00N 39°54' W 075°12'0 0.0
2018-Jan-11 22:31N 39°54' W 075°12'0 0.0
2018-Jan-11 22:00N 39°54' W 075°12'0 0.0
2018-Jan-11 21:31N 39°54' W 075°12'0 0.0
2018-Jan-11 21:00N 39°54' W 075°12'0 0.0
2018-Jan-11 20:31N 39°54' W 075°12'0 0.0
2018-Jan-11 20:00N 39°54' W 075°12'0 0.1
2018-Jan-11 19:30N 39°54' W 075°12'0 0.0
2018-Jan-11 19:00N 39°54' W 075°12'0 0.0
2018-Jan-11 18:30N 39°54' W 075°12'0 0.0
2018-Jan-11 18:00N 39°54' W 075°12'0 0.0
2018-Jan-11 17:31N 39°54' W 075°12'0 0.0
2018-Jan-11 17:01N 39°54' W 075°12'0 0.0
2018-Jan-11 16:30N 39°54' W 075°12'0 0.0
2018-Jan-11 16:00N 39°54' W 075°12'1 1.2
2018-Jan-11 15:31N 39°54' W 075°12'0 0.0
2018-Jan-11 15:00N 39°54' W 075°12'0 0.0
2018-Jan-11 14:30N 39°54' W 075°12'0 0.0
2018-Jan-11 14:01N 39°54' W 075°12'0 0.0
2018-Jan-11 13:31N 39°54' W 075°12'0 0.0
2018-Jan-11 13:01N 39°54' W 075°12'0 0.0
2018-Jan-11 12:30N 39°54' W 075°12'0 0.0
2018-Jan-11 12:01N 39°54' W 075°12'0 0.0
2018-Jan-11 11:31N 39°54' W 075°12'0 0.0
2018-Jan-11 11:01N 39°54' W 075°12'0 0.3
2018-Jan-11 10:31N 39°54' W 075°12'0 0.9
2018-Jan-11 10:00N 39°54' W 075°12'0 0.6
2018-Jan-11 09:31N 39°54' W 075°12'3 5.8
2018-Jan-11 09:00N 39°51' W 075°14'4 7.7
2018-Jan-11 08:30N 39°51' W 075°19'4 7.5
2018-Jan-11 08:00N 39°49' W 075°23'4 7.4
2018-Jan-11 07:30N 39°47' W 075°27'4 7.3
2018-Jan-11 07:00N 39°44' W 075°30'3 6.6
2018-Jan-11 06:30N 39°41' W 075°31'3 6.6
2018-Jan-11 06:01N 39°38' W 075°34'3 5.7
2018-Jan-11 05:30N 39°35' W 075°34'3 6.1
2018-Jan-11 05:01N 39°32' W 075°33'3 5.9
2018-Jan-11 04:30N 39°29' W 075°34'3 5.9
2018-Jan-11 04:00N 39°27' W 075°33'3 6.6
2018-Jan-11 03:30N 39°24' W 075°30'3 6.9
2018-Jan-11 03:00N 39°22' W 075°27'3 6.8
2018-Jan-11 02:30N 39°19' W 075°24'4 7.1
2018-Jan-11 02:00N 39°16' W 075°21'4 7.2
2018-Jan-11 01:30N 39°14' W 075°18'4 7.3
2018-Jan-11 01:00N 39°10' W 075°16'4 7.6
2018-Jan-11 00:28N 39°07' W 075°13'15 8.1
2018-Jan-10 22:40N 38°54' W 075°05'1 3.2
2018-Jan-10 22:23N 38°53' W 075°05'5 5.6
2018-Jan-10 21:26N 38°49' W 075°01'4 8.9
2018-Jan-10 21:00N 38°49' W 074°56'  

Dump ship's entire track history